Latest Weather Forecast - Saturday 7th August 2019 (6am)

Forecast Period:  6:00 pm  6th September  2019 to 6:00 am 7th September  2019 
Synopsis:   Unstable conditions are affecting the islands
Forecast:

Generally fair at first becoming partly cloudy to cloudy with scattered showers. Some isolated thunderstorms are possible during the afternoon.

Weather 
Advisory/Warning:

None

Winds: ESE-SSE at 10 to 20 km/h ( 6 to 16 mph)
Sea Conditions: Slight  in open water with swells from 0.5m to 1.0m
Marine 
Advisory/Warning:

None

Upcoming Tides:
 High: **** 12:35 pm    
Low: **** 8:34 pm

Aviation WX

[Source: ADDS]
METAR
TVSA 301700Z 07011KT 9999 SCT023 29/21 Q1014 =
TVSA 301700Z 3018/3118 07016KT 9999 SCT018 TEMPO 3101/3109 5000 SHRA BKN014
TAF
TVSA 301700Z 3018/3118 07016KT 9999 SCT018 TEMPO 3101/3109 5000 SHRA BKN014 =
SR / SS: 10:01 / 22:16 UTC (Sunrise Sunset 2020-03-30)